Weather at Shellbrook Airport

Public forecast

Using degrees Celsius for public forecast. Weather courtesy of forecast.io.

Closest aviation weather report (METAR) to Shellbrook Airport

Closest report is Prince Albert Glass Field, 24.8 nm (46.0 km) E. Retrieved 2021/05/16 06:00 UTC (7 minutes ago):

CYPA 160600Z 25004KT 15SM FEW120 OVC200 10/07 A2975 RMK AC1CI7 SLP084

Closest aviation forecast (TAF) to Shellbrook Airport

Closest forecast is Prince Albert Glass Field, 24.8 nm (46.0 km) E. Retrieved 2021-05-16 01:39 UTC (4 hours ago):

TAF CYPA 160038Z 1601/1613 20008KT P6SM FEW060 SCT100 TEMPO 1601/1603 VRB15G25KT P6SM -SHRA VCTS SCT060CB BKN100 FM160300 23008KT P6SM SCT100 BKN200 BECMG 1606/1608 28008KT RMK NXT FCST BY 160700Z